createdAt,value
2022-07-25T00:00:50.518Z,5.60
2022-07-25T00:01:54.661Z,3.08
2022-07-25T00:02:59.342Z,8.35
2022-07-25T00:04:02.037Z,4.40
2022-07-25T00:05:06.292Z,3.45
2022-07-25T00:06:13.393Z,4.35
2022-07-25T00:07:20.826Z,3.88
2022-07-25T00:08:23.453Z,4.47
2022-07-25T00:09:26.070Z,4.07
2022-07-25T00:10:28.669Z,4.90
2022-07-25T00:11:31.338Z,6.57
2022-07-25T00:12:34.007Z,5.40
2022-07-25T00:13:36.597Z,6.93
2022-07-25T00:14:39.264Z,3.55
2022-07-25T00:15:41.828Z,5.00
2022-07-25T00:16:44.438Z,4.07
2022-07-25T00:17:47.225Z,6.85
2022-07-25T00:18:49.730Z,7.13
2022-07-25T00:19:52.359Z,3.88
2022-07-25T00:20:55.167Z,5.85
2022-07-25T00:21:58.845Z,4.28
2022-07-25T00:23:01.494Z,4.82
2022-07-25T00:24:04.697Z,3.35
2022-07-25T00:25:07.670Z,5.57
2022-07-25T00:26:10.305Z,7.45
2022-07-25T00:27:12.803Z,5.53
2022-07-25T00:28:15.364Z,5.40
2022-07-25T00:29:17.943Z,4.32
2022-07-25T00:30:20.873Z,4.57
2022-07-25T00:31:23.773Z,9.73
2022-07-25T00:32:26.388Z,4.25
2022-07-25T00:33:28.952Z,3.78
2022-07-25T00:34:31.515Z,3.45
2022-07-25T00:35:34.124Z,10.77
2022-07-25T00:36:36.716Z,9.48
2022-07-25T00:37:39.283Z,4.88
2022-07-25T00:38:41.886Z,5.20
2022-07-25T00:39:44.418Z,7.22
2022-07-25T00:40:47.169Z,4.90
2022-07-25T00:41:57.484Z,4.40
2022-07-25T00:43:00.251Z,6.22
2022-07-25T00:44:03.199Z,6.85
2022-07-25T00:45:06.629Z,4.82
2022-07-25T00:46:09.381Z,4.75
2022-07-25T00:47:11.969Z,4.53
2022-07-25T00:48:14.521Z,5.10
2022-07-25T00:49:17.191Z,5.40
2022-07-25T00:50:20.039Z,6.03
2022-07-25T00:51:23.305Z,4.60
2022-07-25T00:52:26.077Z,3.75
2022-07-25T00:53:29.988Z,5.35
2022-07-25T00:54:33.619Z,4.85
2022-07-25T00:55:36.203Z,5.47
2022-07-25T00:56:39.104Z,5.80
2022-07-25T00:57:41.890Z,6.72
2022-07-25T00:58:45.612Z,5.60
2022-07-25T00:59:48.242Z,4.88
2022-07-25T01:00:51.109Z,4.68
2022-07-25T01:01:54.034Z,5.15
2022-07-25T01:02:56.654Z,4.30
2022-07-25T01:03:59.468Z,6.20
2022-07-25T01:05:03.541Z,7.00
2022-07-25T01:06:06.344Z,6.35
2022-07-25T01:07:11.380Z,4.65
2022-07-25T01:08:14.068Z,6.75
2022-07-25T01:09:16.984Z,7.75
2022-07-25T01:10:19.572Z,3.45
2022-07-25T01:11:22.881Z,4.57
2022-07-25T01:12:25.534Z,4.13
2022-07-25T01:13:28.109Z,7.20
2022-07-25T01:14:30.737Z,6.40
2022-07-25T01:15:33.440Z,7.72
2022-07-25T01:16:36.113Z,5.22
2022-07-25T01:17:38.833Z,5.80
2022-07-25T01:18:41.527Z,5.05
2022-07-25T01:19:44.077Z,6.80
2022-07-25T01:20:46.797Z,4.40
2022-07-25T01:21:49.481Z,4.78
2022-07-25T01:22:52.995Z,4.07
2022-07-25T01:23:55.831Z,5.15
2022-07-25T01:24:58.338Z,6.47
2022-07-25T01:26:00.929Z,7.22
2022-07-25T01:27:04.124Z,4.13
2022-07-25T01:28:06.705Z,4.85
2022-07-25T01:29:09.274Z,8.13
2022-07-25T01:30:13.912Z,4.78
2022-07-25T01:31:16.750Z,5.28
2022-07-25T01:32:19.484Z,6.20
2022-07-25T01:33:22.868Z,5.95
2022-07-25T01:34:25.534Z,4.00
2022-07-25T01:35:28.236Z,6.53
2022-07-25T01:36:31.029Z,7.20
2022-07-25T01:37:35.092Z,4.78
2022-07-25T01:38:37.708Z,3.22
2022-07-25T01:39:40.369Z,3.97
2022-07-25T01:40:44.046Z,6.18
2022-07-25T01:41:46.772Z,3.40
2022-07-25T01:42:49.296Z,6.47
2022-07-25T01:43:51.854Z,6.30
2022-07-25T01:44:54.627Z,4.15
2022-07-25T01:45:57.399Z,4.30
2022-07-25T01:47:00.129Z,3.65
2022-07-25T01:48:02.640Z,4.03
2022-07-25T01:49:05.442Z,9.05
2022-07-25T01:50:08.737Z,6.88
2022-07-25T01:51:11.801Z,6.05
2022-07-25T01:52:14.646Z,7.28
2022-07-25T01:53:17.261Z,4.35
2022-07-25T01:54:19.894Z,4.13
2022-07-25T01:55:22.988Z,4.70
2022-07-25T01:56:27.473Z,5.97
2022-07-25T01:57:32.960Z,4.20
2022-07-25T01:58:35.604Z,6.95
2022-07-25T01:59:42.021Z,4.05
2022-07-25T02:00:44.689Z,5.43
2022-07-25T02:01:47.388Z,5.38
2022-07-25T02:03:10.014Z,4.97
2022-07-25T02:04:12.628Z,5.55
2022-07-25T02:05:15.855Z,5.60
2022-07-25T02:06:18.501Z,3.70
2022-07-25T02:07:21.253Z,7.80
2022-07-25T02:08:23.880Z,6.57
2022-07-25T02:09:26.779Z,5.10
2022-07-25T02:10:29.319Z,5.88
2022-07-25T02:11:31.991Z,5.82
2022-07-25T02:12:34.888Z,7.70
2022-07-25T02:13:37.610Z,4.22
2022-07-25T02:14:40.865Z,7.40
2022-07-25T02:15:43.538Z,5.50
2022-07-25T02:16:46.381Z,5.07
2022-07-25T02:17:49.084Z,4.57
2022-07-25T02:18:51.805Z,5.35
2022-07-25T02:19:54.295Z,7.20
2022-07-25T02:20:56.948Z,4.85
2022-07-25T02:21:59.783Z,8.75
2022-07-25T02:23:03.814Z,8.30
2022-07-25T02:24:07.838Z,8.55
2022-07-25T02:25:10.853Z,5.90
2022-07-25T02:26:14.385Z,6.20
2022-07-25T02:27:17.494Z,6.15
2022-07-25T02:28:20.341Z,7.03
2022-07-25T02:29:23.011Z,5.78
2022-07-25T02:30:26.370Z,6.20
2022-07-25T02:31:29.066Z,8.15
2022-07-25T02:32:31.679Z,7.07
2022-07-25T02:33:34.313Z,6.88
2022-07-25T02:34:37.160Z,12.43
2022-07-25T02:35:39.846Z,6.68
2022-07-25T02:36:42.713Z,7.22
2022-07-25T02:37:45.645Z,6.18
2022-07-25T02:38:48.255Z,7.88
2022-07-25T02:39:50.815Z,8.13
2022-07-25T02:40:53.986Z,7.10
2022-07-25T02:41:56.667Z,6.70
2022-07-25T02:42:59.299Z,6.78
2022-07-25T02:44:01.902Z,7.18
2022-07-25T02:45:05.124Z,5.30
2022-07-25T02:46:07.877Z,5.07
2022-07-25T02:47:10.526Z,5.82
2022-07-25T02:48:13.538Z,8.25
2022-07-25T02:49:16.170Z,8.27
2022-07-25T02:50:19.026Z,9.65
2022-07-25T02:51:21.835Z,6.28
2022-07-25T02:52:24.959Z,6.68
2022-07-25T02:53:47.079Z,6.55
2022-07-25T02:54:50.868Z,5.38
2022-07-25T02:55:53.442Z,4.93
2022-07-25T02:56:59.339Z,5.15
2022-07-25T02:58:02.081Z,4.63
2022-07-25T02:59:04.603Z,6.43
2022-07-25T03:00:08.478Z,8.02
2022-07-25T03:01:11.425Z,6.32
2022-07-25T03:02:14.042Z,5.00
2022-07-25T03:03:16.619Z,8.20
2022-07-25T03:04:19.307Z,9.70
2022-07-25T03:05:22.597Z,4.82
2022-07-25T03:06:25.329Z,5.10
2022-07-25T03:07:27.876Z,10.82
2022-07-25T03:08:30.440Z,6.68
2022-07-25T03:09:32.956Z,9.07
2022-07-25T03:10:36.505Z,5.90
2022-07-25T03:11:39.018Z,9.77
2022-07-25T03:12:42.888Z,9.52
2022-07-25T03:13:45.347Z,10.23
2022-07-25T03:14:47.901Z,11.38
2022-07-25T03:15:50.453Z,6.55
2022-07-25T03:16:53.660Z,8.32
2022-07-25T03:17:56.361Z,7.25
2022-07-25T03:18:59.095Z,5.25
2022-07-25T03:20:01.819Z,10.32
2022-07-25T03:21:04.965Z,5.07
2022-07-25T03:22:07.560Z,7.65
2022-07-25T03:23:10.325Z,7.45
2022-07-25T03:24:12.991Z,5.97
2022-07-25T03:25:21.872Z,6.13
2022-07-25T03:26:24.650Z,5.03
2022-07-25T03:27:27.922Z,6.90
2022-07-25T03:28:30.466Z,4.72
2022-07-25T03:29:33.057Z,5.20
2022-07-25T03:30:35.607Z,5.38
2022-07-25T03:31:38.335Z,6.72
2022-07-25T03:32:41.202Z,4.82
2022-07-25T03:33:43.741Z,5.88
2022-07-25T03:34:46.649Z,7.28
2022-07-25T03:35:49.195Z,4.47
2022-07-25T03:36:51.895Z,4.65
2022-07-25T03:37:54.445Z,5.32
2022-07-25T03:38:57.802Z,9.70
2022-07-25T03:40:00.340Z,5.78
2022-07-25T03:41:02.920Z,8.13
2022-07-25T03:42:05.609Z,4.10
2022-07-25T03:43:08.227Z,6.40
2022-07-25T03:44:10.857Z,4.32
2022-07-25T03:45:13.367Z,6.00
2022-07-25T03:46:16.252Z,4.82
2022-07-25T03:47:20.558Z,5.07
2022-07-25T03:48:23.589Z,7.43
2022-07-25T03:49:26.135Z,4.80
2022-07-25T03:50:28.903Z,5.82
2022-07-25T03:51:31.639Z,6.60
2022-07-25T03:52:34.455Z,5.13
2022-07-25T03:53:56.975Z,7.70
2022-07-25T03:54:59.738Z,5.47
2022-07-25T03:56:02.408Z,5.70
2022-07-25T03:57:05.650Z,4.88
2022-07-25T03:58:08.251Z,5.32
2022-07-25T03:59:13.346Z,9.18
2022-07-25T04:00:15.983Z,6.45
2022-07-25T04:01:18.639Z,5.10
2022-07-25T04:02:21.930Z,5.85
2022-07-25T04:03:24.489Z,7.53
2022-07-25T04:04:27.163Z,7.38
2022-07-25T04:05:30.222Z,5.68
2022-07-25T04:06:32.936Z,5.63
2022-07-25T04:07:36.489Z,5.20
2022-07-25T04:08:39.680Z,4.55
2022-07-25T04:09:42.443Z,8.27
2022-07-25T04:10:45.002Z,5.82
2022-07-25T04:11:47.539Z,6.07
2022-07-25T04:12:50.104Z,5.97
2022-07-25T04:13:52.752Z,5.78
2022-07-25T04:14:55.315Z,7.57
2022-07-25T04:15:57.960Z,6.18
2022-07-25T04:17:00.858Z,6.75
2022-07-25T04:18:03.393Z,6.70
2022-07-25T04:19:09.002Z,5.18
2022-07-25T04:20:12.034Z,5.03
2022-07-25T04:21:15.063Z,4.65
2022-07-25T04:22:17.656Z,5.35
2022-07-25T04:23:20.145Z,4.80
2022-07-25T04:24:22.725Z,4.43
2022-07-25T04:25:25.254Z,4.28
2022-07-25T04:26:27.805Z,4.38
2022-07-25T04:27:30.320Z,5.43
2022-07-25T04:28:33.078Z,7.13
2022-07-25T04:29:35.721Z,3.92
2022-07-25T04:30:38.753Z,4.88
2022-07-25T04:31:41.589Z,5.35
2022-07-25T04:32:44.237Z,5.10
2022-07-25T04:33:46.865Z,4.82
2022-07-25T04:34:49.380Z,3.78
2022-07-25T04:35:52.067Z,4.10
2022-07-25T04:36:54.624Z,3.85
2022-07-25T04:37:57.160Z,6.75
2022-07-25T04:38:59.653Z,4.07
2022-07-25T04:40:02.529Z,3.45
2022-07-25T04:41:05.582Z,6.68
2022-07-25T04:42:08.172Z,4.55
2022-07-25T04:43:10.950Z,8.32
2022-07-25T04:44:13.500Z,4.75
2022-07-25T04:45:17.779Z,3.33
2022-07-25T04:46:21.477Z,4.55
2022-07-25T04:47:24.123Z,3.40
2022-07-25T04:48:26.962Z,3.45
2022-07-25T04:49:29.878Z,5.25
2022-07-25T04:50:32.502Z,4.35
2022-07-25T04:51:35.140Z,3.30
2022-07-25T04:52:37.833Z,2.85
2022-07-25T04:53:40.356Z,4.78
2022-07-25T04:54:42.918Z,5.10
2022-07-25T04:55:45.479Z,4.78
2022-07-25T04:56:48.039Z,3.45
2022-07-25T04:57:52.576Z,3.63
2022-07-25T04:58:55.277Z,5.22
2022-07-25T04:59:58.915Z,3.20
2022-07-25T05:01:01.664Z,3.88
2022-07-25T05:02:04.461Z,4.45
2022-07-25T05:03:07.213Z,3.13
2022-07-25T05:04:10.258Z,3.55
2022-07-25T05:05:20.851Z,3.55
2022-07-25T05:06:24.046Z,3.33
2022-07-25T05:07:26.700Z,3.28
2022-07-25T05:08:29.933Z,5.70
2022-07-25T05:09:32.473Z,5.78
2022-07-25T05:10:35.017Z,4.05
2022-07-25T05:11:37.625Z,4.50
2022-07-25T05:12:40.317Z,3.70
2022-07-25T05:13:43.101Z,2.90
2022-07-25T05:14:45.572Z,4.22
2022-07-25T05:15:48.157Z,4.65
2022-07-25T05:16:50.879Z,3.20
2022-07-25T05:17:53.499Z,3.10
2022-07-25T05:18:56.165Z,3.20
2022-07-25T05:19:59.482Z,5.25
2022-07-25T05:21:02.207Z,3.45
2022-07-25T05:22:05.083Z,2.95
2022-07-25T05:23:07.922Z,4.35
2022-07-25T05:24:10.391Z,5.38
2022-07-25T05:25:13.172Z,2.67
2022-07-25T05:26:15.959Z,7.10
2022-07-25T05:27:18.476Z,2.20
2022-07-25T05:28:21.145Z,3.42
2022-07-25T05:29:23.661Z,2.10
2022-07-25T05:30:26.362Z,3.70
2022-07-25T05:31:30.023Z,2.03
2022-07-25T05:32:32.642Z,3.85
2022-07-25T05:33:35.406Z,6.15
2022-07-25T05:34:38.064Z,2.13
2022-07-25T05:35:40.811Z,4.20
2022-07-25T05:36:47.186Z,3.63
2022-07-25T05:37:50.063Z,2.67
2022-07-25T05:38:53.264Z,2.45
2022-07-25T05:39:55.919Z,2.22
2022-07-25T05:40:58.705Z,2.35
2022-07-25T05:42:01.321Z,2.47
2022-07-25T05:43:04.154Z,1.98
2022-07-25T05:44:07.161Z,3.33
2022-07-25T05:45:10.207Z,4.80
2022-07-25T05:46:12.898Z,4.65
2022-07-25T05:47:15.854Z,5.60
2022-07-25T05:48:18.561Z,3.75
2022-07-25T05:49:21.175Z,2.47
2022-07-25T05:50:23.981Z,2.00
2022-07-25T05:51:27.697Z,4.03
2022-07-25T05:52:30.453Z,1.83
2022-07-25T05:53:33.504Z,3.38
2022-07-25T05:54:36.441Z,3.03
2022-07-25T05:55:40.099Z,3.22
2022-07-25T05:56:43.777Z,2.58
2022-07-25T05:57:46.510Z,1.73
2022-07-25T05:58:49.332Z,7.38
2022-07-25T05:59:52.026Z,2.33
2022-07-25T06:00:55.084Z,1.90
2022-07-25T06:01:57.806Z,1.65
2022-07-25T06:03:00.850Z,4.35
2022-07-25T06:04:03.967Z,7.53
2022-07-25T06:05:07.044Z,4.50
2022-07-25T06:06:09.595Z,10.00
2022-07-25T06:07:12.353Z,2.88
2022-07-25T06:08:19.719Z,2.08
2022-07-25T06:09:25.336Z,3.53
2022-07-25T06:10:27.956Z,4.28
2022-07-25T06:11:31.664Z,2.80
2022-07-25T06:12:36.527Z,5.22
2022-07-25T06:13:39.995Z,3.10
2022-07-25T06:14:43.177Z,4.43
2022-07-25T06:15:45.880Z,1.98
2022-07-25T06:16:48.621Z,3.35
2022-07-25T06:17:51.420Z,5.28
2022-07-25T06:18:54.053Z,3.00
2022-07-25T06:19:56.532Z,1.63
2022-07-25T06:20:59.909Z,2.80
2022-07-25T06:22:02.425Z,5.68
2022-07-25T06:23:05.012Z,2.88
2022-07-25T06:24:08.270Z,4.15
2022-07-25T06:25:11.094Z,2.13
2022-07-25T06:26:13.749Z,3.17
2022-07-25T06:27:20.530Z,1.17
2022-07-25T06:28:24.480Z,1.35
2022-07-25T06:29:27.397Z,1.30
2022-07-25T06:30:30.334Z,1.80
2022-07-25T06:31:33.036Z,1.33
2022-07-25T06:32:35.817Z,4.38
2022-07-25T06:33:38.595Z,1.50
2022-07-25T06:34:41.247Z,1.67
2022-07-25T06:35:43.770Z,1.60
2022-07-25T06:36:46.405Z,1.55
2022-07-25T06:37:49.125Z,1.70
2022-07-25T06:38:51.715Z,2.95
2022-07-25T06:39:56.737Z,1.38
2022-07-25T06:41:01.195Z,1.98
2022-07-25T06:42:04.621Z,1.60
2022-07-25T06:43:10.070Z,10.45
2022-07-25T06:44:12.645Z,1.77
2022-07-25T06:45:16.402Z,1.45
2022-07-25T06:46:19.048Z,1.92
2022-07-25T06:47:21.952Z,2.65
2022-07-25T06:48:24.862Z,1.35
2022-07-25T06:49:27.919Z,5.10
2022-07-25T06:50:31.448Z,1.20
2022-07-25T06:51:34.013Z,1.42
2022-07-25T06:52:36.823Z,1.90
2022-07-25T06:53:39.454Z,2.50
2022-07-25T06:54:42.165Z,1.25
2022-07-25T06:55:45.681Z,1.77
2022-07-25T06:56:48.405Z,1.77
2022-07-25T06:57:50.998Z,2.45
2022-07-25T06:58:55.040Z,2.58
2022-07-25T06:59:57.909Z,1.77
2022-07-25T07:01:01.380Z,1.70
2022-07-25T07:02:04.163Z,0.80
2022-07-25T07:03:07.137Z,0.88
2022-07-25T07:04:10.181Z,2.47
2022-07-25T07:05:13.029Z,0.93
2022-07-25T07:06:17.227Z,2.33
2022-07-25T07:07:20.102Z,0.68
2022-07-25T07:08:22.676Z,1.55
2022-07-25T07:09:25.829Z,1.83
2022-07-25T07:10:28.683Z,0.60
2022-07-25T07:11:31.327Z,1.08
2022-07-25T07:12:34.206Z,1.08
2022-07-25T07:13:38.110Z,0.70
2022-07-25T07:14:41.961Z,2.05
2022-07-25T07:15:47.247Z,5.35
2022-07-25T07:16:49.978Z,1.27
2022-07-25T07:17:52.684Z,3.45
2022-07-25T07:18:55.614Z,2.38
2022-07-25T07:19:58.284Z,1.02
2022-07-25T07:21:00.927Z,1.15
2022-07-25T07:22:03.473Z,1.33
2022-07-25T07:23:06.607Z,1.38
2022-07-25T07:24:18.505Z,1.42
2022-07-25T07:25:28.337Z,3.20
2022-07-25T07:26:31.258Z,1.05
2022-07-25T07:27:33.874Z,1.13
2022-07-25T07:28:36.524Z,1.10
2022-07-25T07:29:39.105Z,2.20
2022-07-25T07:32:07.138Z,0.95
2022-07-25T07:33:10.149Z,1.85
2022-07-25T07:34:16.213Z,1.63
2022-07-25T07:35:19.442Z,0.55
2022-07-25T07:36:22.684Z,3.35
2022-07-25T07:37:25.281Z,0.70
2022-07-25T07:38:27.845Z,0.77
2022-07-25T07:39:30.487Z,4.38
2022-07-25T07:40:33.066Z,0.70
2022-07-25T07:41:35.680Z,1.27
2022-07-25T07:42:46.625Z,0.82
2022-07-25T07:43:50.515Z,0.82
2022-07-25T07:44:53.157Z,0.70
2022-07-25T07:45:56.867Z,1.85
2022-07-25T07:47:02.837Z,0.95
2022-07-25T07:48:07.270Z,0.82
2022-07-25T07:49:10.790Z,2.92
2022-07-25T07:50:14.615Z,1.10
2022-07-25T07:51:17.349Z,3.65
2022-07-25T07:52:20.393Z,0.75
2022-07-25T07:53:23.011Z,1.05
2022-07-25T07:54:44.146Z,5.38
2022-07-25T07:55:48.891Z,0.90
2022-07-25T07:56:51.717Z,0.88
2022-07-25T07:57:54.458Z,0.85
2022-07-25T07:58:56.984Z,1.23
2022-07-25T07:59:59.469Z,0.88
2022-07-25T08:01:02.160Z,1.45
2022-07-25T08:02:04.900Z,1.30
2022-07-25T08:03:08.851Z,0.70
2022-07-25T08:04:11.759Z,0.80
2022-07-25T08:05:23.723Z,2.85
2022-07-25T08:06:27.808Z,0.93
2022-07-25T08:07:30.333Z,3.15
2022-07-25T08:08:33.030Z,1.15
2022-07-25T08:09:35.654Z,1.45
2022-07-25T08:10:41.113Z,2.50
2022-07-25T08:11:43.685Z,2.80
2022-07-25T08:12:46.171Z,1.38
2022-07-25T08:13:48.957Z,3.53
2022-07-25T08:14:51.627Z,1.40
2022-07-25T08:15:58.746Z,1.33
2022-07-25T08:17:01.612Z,0.98
2022-07-25T08:18:04.873Z,2.45
2022-07-25T08:19:20.015Z,0.68
2022-07-25T08:20:39.704Z,0.82
2022-07-25T08:21:42.384Z,3.25
2022-07-25T08:22:54.451Z,0.68
2022-07-25T08:23:59.375Z,1.20
2022-07-25T08:25:01.973Z,2.33
2022-07-25T08:26:05.496Z,1.08
2022-07-25T08:27:07.970Z,0.75
2022-07-25T08:28:10.704Z,0.70
2022-07-25T08:29:22.948Z,2.47
2022-07-25T08:30:30.385Z,0.77
2022-07-25T08:31:33.147Z,1.13
2022-07-25T08:32:50.308Z,0.50
2022-07-25T08:33:53.273Z,2.75
2022-07-25T08:34:57.242Z,1.88
2022-07-25T08:36:00.521Z,0.82
2022-07-25T08:37:03.180Z,0.68
2022-07-25T08:38:06.733Z,0.93
2022-07-25T08:39:09.221Z,1.20
2022-07-25T08:40:13.851Z,0.90
2022-07-25T08:41:16.650Z,1.77
2022-07-25T08:42:20.652Z,1.23
2022-07-25T08:43:23.470Z,2.60
2022-07-25T08:44:28.936Z,0.77
2022-07-25T08:45:33.558Z,0.70
2022-07-25T08:46:36.864Z,1.63
2022-07-25T08:47:41.102Z,4.32
2022-07-25T08:48:44.773Z,1.33
2022-07-25T08:49:47.439Z,2.20
2022-07-25T08:50:51.350Z,0.50
2022-07-25T08:51:54.498Z,0.80
2022-07-25T08:53:23.058Z,1.10
2022-07-25T08:54:20.048Z,1.38
2022-07-25T08:55:25.750Z,0.68
2022-07-25T08:56:28.679Z,0.57
2022-07-25T08:57:31.430Z,1.00
2022-07-25T08:58:33.972Z,1.25
2022-07-25T08:59:36.576Z,0.70
2022-07-25T09:00:39.922Z,0.68
2022-07-25T09:01:42.608Z,3.03
2022-07-25T09:02:52.827Z,1.38
2022-07-25T09:03:55.393Z,2.00
2022-07-25T09:04:59.049Z,0.75
2022-07-25T09:06:01.601Z,0.88
2022-07-25T09:07:08.106Z,0.90
2022-07-25T09:08:17.332Z,1.38
2022-07-25T09:09:20.091Z,0.73
2022-07-25T09:10:28.902Z,1.20
2022-07-25T09:11:36.646Z,1.10
2022-07-25T09:12:39.676Z,1.00
2022-07-25T09:13:42.516Z,0.80
2022-07-25T09:14:45.255Z,6.38
2022-07-25T09:16:00.546Z,0.82
2022-07-25T09:17:22.578Z,1.10
2022-07-25T09:18:28.708Z,0.90
2022-07-25T09:19:33.342Z,0.75
2022-07-25T09:20:45.440Z,1.02
2022-07-25T09:22:05.150Z,0.73
2022-07-25T09:23:11.700Z,1.33
2022-07-25T09:24:18.753Z,0.85
2022-07-25T09:25:29.932Z,1.02
2022-07-25T09:26:32.419Z,0.90
2022-07-25T09:27:35.051Z,0.73
2022-07-25T09:28:45.513Z,2.05
2022-07-25T09:29:48.682Z,0.82
2022-07-25T09:31:01.210Z,0.75
2022-07-25T09:32:16.379Z,0.80
2022-07-25T09:33:19.045Z,0.80
2022-07-25T09:34:42.652Z,0.88
2022-07-25T09:35:45.174Z,0.80
2022-07-25T09:36:54.665Z,1.95
2022-07-25T09:38:10.923Z,1.98
2022-07-25T09:39:13.570Z,1.25
2022-07-25T09:40:16.579Z,0.95
2022-07-25T09:41:19.876Z,0.70
2022-07-25T09:42:32.734Z,0.70
2022-07-25T09:43:40.729Z,1.20
2022-07-25T09:44:43.657Z,1.13
2022-07-25T09:45:53.157Z,1.35
2022-07-25T09:46:56.888Z,1.00
2022-07-25T09:48:04.101Z,1.45
2022-07-25T09:49:06.755Z,0.80
2022-07-25T09:50:09.572Z,1.08
2022-07-25T09:51:12.281Z,3.30
2022-07-25T09:52:15.168Z,1.70
2022-07-25T09:53:18.264Z,0.85
2022-07-25T09:54:21.080Z,3.42
2022-07-25T09:55:24.302Z,0.73
2022-07-25T09:56:26.995Z,0.85
2022-07-25T09:57:29.524Z,0.75
2022-07-25T09:58:32.100Z,0.77
2022-07-25T09:59:35.971Z,0.60
2022-07-25T10:00:42.055Z,0.90
2022-07-25T10:01:59.036Z,0.90
2022-07-25T10:03:07.848Z,1.08
2022-07-25T10:04:16.274Z,0.85
2022-07-25T10:05:26.707Z,1.13
2022-07-25T10:06:37.929Z,0.98
2022-07-25T10:07:48.799Z,1.10
2022-07-25T10:08:51.788Z,0.80
2022-07-25T10:09:55.359Z,0.90
2022-07-25T10:10:58.174Z,1.70
2022-07-25T10:12:09.537Z,1.00
2022-07-25T10:13:18.207Z,2.65
2022-07-25T10:14:20.664Z,1.35
2022-07-25T10:15:23.341Z,1.05
2022-07-25T10:16:26.956Z,1.30
2022-07-25T10:17:29.897Z,1.52
2022-07-25T10:18:32.518Z,1.00
2022-07-25T10:19:49.902Z,1.23
2022-07-25T10:20:56.948Z,1.08
2022-07-25T10:21:59.576Z,1.25
2022-07-25T10:23:02.518Z,3.00
2022-07-25T10:24:10.687Z,2.92
2022-07-25T10:25:16.367Z,1.40
2022-07-25T10:26:19.689Z,1.20
2022-07-25T10:27:23.792Z,1.13
2022-07-25T10:28:43.286Z,4.45
2022-07-25T10:30:58.205Z,1.20
2022-07-25T10:32:12.171Z,1.23
2022-07-25T10:33:17.655Z,1.00
2022-07-25T10:34:33.540Z,1.13
2022-07-25T10:35:36.403Z,3.03
2022-07-25T10:36:47.786Z,0.88
2022-07-25T10:37:52.402Z,1.15
2022-07-25T10:38:59.807Z,1.35
2022-07-25T10:40:04.057Z,1.00
2022-07-25T10:41:09.113Z,0.90
2022-07-25T10:42:16.546Z,0.85
2022-07-25T10:43:20.908Z,1.05
2022-07-25T10:44:23.602Z,2.70
2022-07-25T10:45:27.597Z,0.80
2022-07-25T10:46:31.049Z,0.80
2022-07-25T10:47:42.420Z,0.90
2022-07-25T10:48:45.648Z,0.73
2022-07-25T10:50:13.566Z,1.15
2022-07-25T10:51:13.863Z,1.13
2022-07-25T10:52:18.006Z,0.80
2022-07-25T10:53:38.533Z,0.90
2022-07-25T10:54:41.205Z,0.63
2022-07-25T10:56:04.854Z,2.05
2022-07-25T10:57:15.726Z,1.33
2022-07-25T10:58:18.563Z,2.88
2022-07-25T10:59:35.322Z,0.63
2022-07-25T11:00:45.020Z,1.13
2022-07-25T11:01:51.265Z,0.70
2022-07-25T11:02:57.530Z,0.82
2022-07-25T11:04:05.632Z,0.52
2022-07-25T11:05:08.659Z,0.55
2022-07-25T11:06:13.165Z,2.20
2022-07-25T11:07:19.936Z,1.20
2022-07-25T11:08:32.405Z,6.38
2022-07-25T11:09:34.938Z,1.38
2022-07-25T11:10:37.623Z,2.03
2022-07-25T11:11:43.265Z,1.63
2022-07-25T11:12:45.815Z,0.50
2022-07-25T11:13:50.227Z,0.50
2022-07-25T11:15:03.865Z,0.65
2022-07-25T11:16:07.113Z,0.57
2022-07-25T11:17:18.646Z,0.43
2022-07-25T11:18:35.223Z,1.20
2022-07-25T11:19:37.931Z,1.50
2022-07-25T11:20:40.454Z,0.60
2022-07-25T11:21:47.728Z,1.38
2022-07-25T11:22:55.108Z,0.70
2022-07-25T11:23:57.697Z,0.50
2022-07-25T11:25:01.246Z,2.28
2022-07-25T11:26:09.163Z,0.47
2022-07-25T11:27:15.440Z,0.55
2022-07-25T11:28:18.160Z,1.25
2022-07-25T11:29:23.930Z,4.63
2022-07-25T11:30:29.131Z,1.75
2022-07-25T11:31:32.635Z,2.80
2022-07-25T11:32:43.298Z,1.67
2022-07-25T11:33:48.091Z,3.28
2022-07-25T11:34:53.956Z,1.58
2022-07-25T11:35:59.467Z,1.42
2022-07-25T11:37:04.448Z,0.77
2022-07-25T11:38:07.141Z,0.75
2022-07-25T11:39:13.183Z,1.42
2022-07-25T11:40:20.434Z,2.35
2022-07-25T11:41:30.403Z,1.25
2022-07-25T11:42:59.789Z,0.63
2022-07-25T11:44:02.846Z,0.70
2022-07-25T11:45:22.747Z,11.95
2022-07-25T11:46:25.970Z,3.08
2022-07-25T11:47:31.337Z,1.95
2022-07-25T11:48:43.046Z,2.30
2022-07-25T11:49:50.220Z,1.60
2022-07-25T11:50:52.799Z,2.95
2022-07-25T11:51:55.369Z,2.22
2022-07-25T11:53:02.606Z,7.57
2022-07-25T11:54:13.225Z,2.08
2022-07-25T11:55:18.879Z,2.88
2022-07-25T11:56:41.758Z,1.40
2022-07-25T11:57:47.449Z,2.40
2022-07-25T11:58:58.889Z,1.90
2022-07-25T12:00:04.678Z,1.02
2022-07-25T12:01:14.768Z,0.70
2022-07-25T12:02:28.457Z,1.08
2022-07-25T12:03:38.188Z,0.95
2022-07-25T12:04:40.914Z,1.27
2022-07-25T12:05:44.083Z,1.20
2022-07-25T12:06:50.220Z,8.30
2022-07-25T12:07:54.507Z,3.05
2022-07-25T12:08:57.106Z,1.75
2022-07-25T12:09:59.662Z,1.35
2022-07-25T12:11:02.261Z,0.98
2022-07-25T12:12:05.209Z,1.20
2022-07-25T12:13:10.274Z,0.85
2022-07-25T12:14:13.420Z,1.42
2022-07-25T12:15:18.664Z,1.05
2022-07-25T12:16:21.376Z,1.98
2022-07-25T12:17:24.008Z,2.10
2022-07-25T12:18:28.127Z,0.80
2022-07-25T12:19:30.872Z,1.50
2022-07-25T12:20:35.851Z,1.27
2022-07-25T12:21:38.370Z,1.65
2022-07-25T12:22:41.340Z,0.60
2022-07-25T12:23:44.163Z,0.80
2022-07-25T12:24:46.732Z,0.88
2022-07-25T12:25:49.830Z,0.65
2022-07-25T12:26:52.522Z,0.85
2022-07-25T12:27:55.600Z,6.55
2022-07-25T12:28:58.190Z,6.07
2022-07-25T12:30:00.887Z,0.82
2022-07-25T12:31:03.656Z,1.92
2022-07-25T12:32:06.663Z,2.03
2022-07-25T12:33:10.242Z,1.10
2022-07-25T12:34:12.808Z,1.25
2022-07-25T12:35:15.490Z,1.50
2022-07-25T12:36:18.110Z,1.90
2022-07-25T12:37:21.797Z,2.90
2022-07-25T12:38:24.440Z,1.85
2022-07-25T12:39:27.237Z,4.80
2022-07-25T12:40:29.863Z,1.30
2022-07-25T12:41:32.475Z,1.17
2022-07-25T12:42:37.705Z,3.90
2022-07-25T12:43:40.345Z,3.83
2022-07-25T12:44:43.008Z,1.90
2022-07-25T12:45:45.757Z,1.42
2022-07-25T12:46:49.667Z,0.88
2022-07-25T12:47:52.559Z,1.00
2022-07-25T12:48:55.103Z,1.83
2022-07-25T12:49:57.708Z,1.58
2022-07-25T12:51:00.203Z,1.00
2022-07-25T12:52:02.961Z,1.52
2022-07-25T12:53:05.946Z,1.70
2022-07-25T12:54:08.778Z,1.23
2022-07-25T12:55:15.401Z,1.30
2022-07-25T12:56:17.929Z,1.48
2022-07-25T12:57:23.331Z,2.47
2022-07-25T12:58:26.119Z,2.70
2022-07-25T12:59:28.772Z,2.17
2022-07-25T13:00:31.493Z,1.13
2022-07-25T13:01:34.186Z,1.30
2022-07-25T13:02:37.523Z,1.60
2022-07-25T13:03:40.305Z,1.17
2022-07-25T13:04:43.268Z,1.20
2022-07-25T13:05:45.956Z,2.50
2022-07-25T13:06:48.580Z,1.30
2022-07-25T13:07:51.647Z,1.13
2022-07-25T13:08:54.315Z,1.42
2022-07-25T13:09:57.094Z,1.23
2022-07-25T13:10:59.627Z,2.00
2022-07-25T13:12:03.072Z,1.10
2022-07-25T13:13:05.712Z,1.38
2022-07-25T13:14:08.442Z,2.13
2022-07-25T13:15:10.951Z,2.53
2022-07-25T13:16:13.781Z,3.22
2022-07-25T13:17:16.639Z,3.30
2022-07-25T13:18:19.255Z,1.10
2022-07-25T13:19:21.895Z,1.60
2022-07-25T13:20:24.651Z,2.80
2022-07-25T13:21:27.279Z,4.93
2022-07-25T13:22:30.055Z,1.13
2022-07-25T13:23:32.675Z,2.33
2022-07-25T13:24:35.339Z,1.15
2022-07-25T13:25:37.938Z,0.90
2022-07-25T13:26:40.797Z,1.40
2022-07-25T13:27:43.529Z,1.67
2022-07-25T13:28:46.364Z,1.45
2022-07-25T13:29:54.642Z,1.35
2022-07-25T13:30:57.744Z,1.38
2022-07-25T13:32:00.648Z,3.70
2022-07-25T13:33:03.482Z,1.10
2022-07-25T13:34:06.803Z,0.80
2022-07-25T13:35:09.867Z,1.27
2022-07-25T13:36:13.104Z,1.00
2022-07-25T13:37:15.649Z,2.25
2022-07-25T13:38:18.281Z,2.25
2022-07-25T13:39:23.498Z,1.77
2022-07-25T13:40:26.153Z,3.90
2022-07-25T13:41:28.852Z,1.90
2022-07-25T13:42:32.674Z,1.08
2022-07-25T13:43:35.585Z,1.10
2022-07-25T13:44:38.159Z,1.48
2022-07-25T13:45:42.305Z,1.25
2022-07-25T13:46:46.288Z,1.90
2022-07-25T13:48:06.037Z,1.02
2022-07-25T13:49:12.242Z,1.35
2022-07-25T13:50:15.031Z,1.20
2022-07-25T13:51:17.770Z,0.93
2022-07-25T13:52:20.232Z,3.92
2022-07-25T13:53:25.553Z,3.53
2022-07-25T13:54:32.527Z,1.48
2022-07-25T13:55:35.867Z,2.17
2022-07-25T13:56:38.558Z,7.72
2022-07-25T13:57:41.151Z,2.05
2022-07-25T13:58:43.897Z,7.00
2022-07-25T13:59:50.661Z,2.78
2022-07-25T14:00:53.596Z,2.17
2022-07-25T14:01:56.322Z,1.23
2022-07-25T14:02:59.025Z,1.17
2022-07-25T14:04:01.815Z,1.45
2022-07-25T14:05:05.126Z,1.38
2022-07-25T14:06:11.336Z,1.15
2022-07-25T14:07:14.525Z,1.80
2022-07-25T14:08:17.256Z,3.17
2022-07-25T14:09:20.922Z,1.63
2022-07-25T14:10:23.665Z,1.80
2022-07-25T14:11:30.543Z,2.58
2022-07-25T14:12:33.708Z,1.13
2022-07-25T14:13:37.100Z,2.22
2022-07-25T14:14:39.556Z,2.20
2022-07-25T14:15:42.221Z,2.80
2022-07-25T14:16:45.034Z,1.55
2022-07-25T14:17:47.830Z,5.85